Time;durP1;ratioP1;P1;durP2;ratioP2;P2;SDS_P1;SDS_P2;PMS_P1;PMS_P2;Temp;Humidity;BMP_temperature;BMP_pressure;BME280_temperature;BME280_humidity;BME280_pressure;Samples;Min_cycle;Max_cycle;Signal;HPM_P1;HPM_P2
2023/07/09 00:01:18;;;;;;;6.00;4.60;;;21.30;99.90;;;;;;5053031;28;20412;-64
2023/07/09 00:03:51;;;;;;;7.83;4.53;;;21.30;99.90;;;;;;5053103;28;20916;-65
2023/07/09 00:06:18;;;;;;;6.20;5.00;;;21.20;99.90;;;;;;5052619;28;20914;-65
2023/07/09 00:08:47;;;;;;;6.23;4.57;;;21.20;99.90;;;;;;5052841;28;20433;-65
2023/07/09 00:11:14;;;;;;;6.40;4.40;;;21.20;99.90;;;;;;5052885;28;20745;-65
2023/07/09 00:13:39;;;;;;;5.33;4.50;;;21.20;99.90;;;;;;5052718;28;20441;-65
2023/07/09 00:16:16;;;;;;;5.43;4.60;;;21.10;99.90;;;;;;5052503;28;20405;-65
2023/07/09 00:18:42;;;;;;;7.07;4.70;;;21.10;99.90;;;;;;5052697;28;20193;-65
2023/07/09 00:21:08;;;;;;;6.20;4.40;;;21.00;99.90;;;;;;5052580;28;20956;-65
2023/07/09 00:23:33;;;;;;;4.80;4.20;;;21.00;99.90;;;;;;5052652;28;20401;-64
2023/07/09 00:25:59;;;;;;;8.23;6.03;;;21.00;99.90;;;;;;5052182;28;20171;-65
2023/07/09 00:28:25;;;;;;;7.33;5.20;;;21.00;99.90;;;;;;5051856;28;20191;-65
2023/07/09 00:30:50;;;;;;;8.67;5.57;;;21.00;99.90;;;;;;5052575;28;20648;-65
2023/07/09 00:33:19;;;;;;;6.47;5.53;;;20.90;99.90;;;;;;5052463;28;20202;-65
2023/07/09 00:35:48;;;;;;;9.73;4.90;;;20.80;99.90;;;;;;5052158;28;20277;-65
2023/07/09 00:38:23;;;;;;;6.70;5.97;;;20.80;99.90;;;;;;5052249;28;20425;-65
2023/07/09 00:41:06;;;;;;;5.10;4.37;;;20.70;99.90;;;;;;5052424;28;20909;-65
2023/07/09 00:43:36;;;;;;;10.70;4.20;;;20.80;99.90;;;;;;5052308;28;20471;-65
2023/07/09 00:46:46;;;;;;;5.77;5.00;;;20.80;99.90;;;;;;5051983;28;20406;-65
2023/07/09 00:49:17;;;;;;;10.20;4.70;;;20.80;99.90;;;;;;5052118;28;20409;-65
2023/07/09 00:51:45;;;;;;;7.10;5.63;;;20.70;99.90;;;;;;5052429;28;20416;-65
2023/07/09 00:54:31;;;;;;;5.77;4.73;;;20.70;99.90;;;;;;5052181;28;20456;-64
2023/07/09 00:57:00;;;;;;;5.30;3.60;;;20.80;99.90;;;;;;5051852;28;20485;-65
2023/07/09 00:59:31;;;;;;;7.27;4.63;;;20.80;99.90;;;;;;5052074;28;20401;-65
2023/07/09 01:02:00;;;;;;;5.20;4.70;;;20.80;99.90;;;;;;5052074;28;20417;-65
2023/07/09 01:04:26;;;;;;;6.53;4.33;;;20.90;99.90;;;;;;5051968;28;20401;-65
2023/07/09 01:06:54;;;;;;;10.27;4.57;;;20.80;99.90;;;;;;5051606;28;20429;-65
2023/07/09 01:09:21;;;;;;;6.70;4.43;;;20.80;99.90;;;;;;5052016;28;20398;-65
2023/07/09 01:11:47;;;;;;;8.47;5.20;;;20.70;99.90;;;;;;5052001;28;20479;-65
2023/07/09 01:14:16;;;;;;;6.67;5.27;;;20.70;99.90;;;;;;5051763;28;20445;-65
2023/07/09 01:16:56;;;;;;;9.57;6.10;;;20.70;99.90;;;;;;5051553;28;20183;-65
2023/07/09 01:19:25;;;;;;;7.13;4.30;;;20.60;99.90;;;;;;5052052;28;20746;-65
2023/07/09 01:21:54;;;;;;;10.40;5.27;;;20.50;99.90;;;;;;5051955;28;20843;-65
2023/07/09 01:24:47;;;;;;;7.50;5.17;;;20.50;99.90;;;;;;5051811;28;20455;-65
2023/07/09 01:27:13;;;;;;;6.00;4.77;;;20.50;99.90;;;;;;5051454;28;20482;-65
2023/07/09 01:29:41;;;;;;;6.20;4.47;;;20.40;99.90;;;;;;5051557;28;20397;-65
2023/07/09 01:32:07;;;;;;;6.40;4.60;;;20.40;99.90;;;;;;5051727;28;20433;-65
2023/07/09 01:34:33;;;;;;;8.80;5.10;;;20.40;99.90;;;;;;5051531;28;20910;-65
2023/07/09 01:36:58;;;;;;;5.73;4.50;;;20.40;99.90;;;;;;5051344;28;20896;-65
2023/07/09 01:39:28;;;;;;;6.67;4.67;;;20.50;99.90;;;;;;5054696;28;20539;-65
2023/07/09 01:41:54;;;;;;;7.37;4.50;;;20.60;99.90;;;;;;5055905;28;20250;-65
2023/07/09 01:44:20;;;;;;;6.67;4.93;;;20.60;99.90;;;;;;5055723;28;20409;-65
2023/07/09 01:46:46;;;;;;;5.13;4.63;;;20.70;99.90;;;;;;5055251;28;20955;-65
2023/07/09 01:49:11;;;;;;;6.23;5.37;;;20.70;99.90;;;;;;5055503;28;20397;-65
2023/07/09 01:51:38;;;;;;;6.27;4.63;;;20.70;99.90;;;;;;5055542;28;20178;-65
2023/07/09 01:54:04;;;;;;;7.70;5.33;;;20.70;99.90;;;;;;5055372;28;20550;-66
2023/07/09 01:56:29;;;;;;;8.30;4.83;;;20.70;99.90;;;;;;5055178;28;20404;-65
2023/07/09 01:59:00;;;;;;;5.67;5.10;;;20.70;99.90;;;;;;5055422;28;20187;-65
2023/07/09 02:01:29;;;;;;;7.50;5.00;;;20.70;99.90;;;;;;5055386;28;20187;-64
2023/07/09 02:03:54;;;;;;;9.00;5.93;;;20.70;99.90;;;;;;5055304;28;20408;-65
2023/07/09 02:06:20;;;;;;;6.23;5.63;;;20.70;99.90;;;;;;5054852;28;20898;-65
2023/07/09 02:08:46;;;;;;;5.13;4.33;;;20.80;99.90;;;;;;5055173;28;20206;-65
2023/07/09 02:11:11;;;;;;;7.37;5.60;;;20.80;99.90;;;;;;5055196;28;20663;-65
2023/07/09 02:13:37;;;;;;;8.10;4.47;;;20.80;99.90;;;;;;5055104;28;20566;-65
2023/07/09 02:16:03;;;;;;;5.93;4.40;;;20.80;99.90;;;;;;5054822;28;20619;-65
2023/07/09 02:18:29;;;;;;;5.07;4.37;;;20.80;99.90;;;;;;5054911;28;20665;-65
2023/07/09 02:20:55;;;;;;;7.93;5.20;;;20.70;99.90;;;;;;5054965;28;20489;-65
2023/07/09 02:23:26;;;;;;;8.33;5.47;;;20.70;99.90;;;;;;5054967;28;20174;-65
2023/07/09 02:25:52;;;;;;;11.40;5.20;;;20.70;99.90;;;;;;5054539;28;20669;-65
2023/07/09 02:28:18;;;;;;;5.97;4.33;;;20.70;99.90;;;;;;5054775;28;20520;-65
2023/07/09 02:30:43;;;;;;;5.83;5.20;;;20.80;99.90;;;;;;5054880;28;20175;-65
2023/07/09 02:33:09;;;;;;;7.70;5.80;;;20.80;99.90;;;;;;5054617;28;20195;-65
2023/07/09 02:35:35;;;;;;;6.67;5.00;;;20.70;99.90;;;;;;5054397;28;20224;-65
2023/07/09 02:38:01;;;;;;;6.60;5.20;;;20.60;99.90;;;;;;5054681;28;20214;-65
2023/07/09 02:40:27;;;;;;;6.43;4.33;;;20.70;99.90;;;;;;5054551;28;20910;-65
2023/07/09 02:42:52;;;;;;;29.83;21.83;;;20.70;99.90;;;;;;5054546;28;20414;-65
2023/07/09 02:45:18;;;;;;;8.30;6.63;;;20.70;99.90;;;;;;5054220;28;20181;-65
2023/07/09 02:47:43;;;;;;;6.87;6.00;;;20.70;99.90;;;;;;5054408;28;20222;-65
2023/07/09 02:50:09;;;;;;;8.90;5.07;;;20.60;99.90;;;;;;5053636;28;20174;-65
2023/07/09 02:52:35;;;;;;;5.83;5.23;;;20.60;99.90;;;;;;5054483;28;20300;-65
2023/07/09 02:55:00;;;;;;;16.23;13.00;;;20.70;99.90;;;;;;5054171;28;20159;-65
2023/07/09 02:57:26;;;;;;;9.07;7.80;;;20.60;99.90;;;;;;5054226;28;20186;-65
2023/07/09 02:59:51;;;;;;;5.87;4.73;;;20.50;99.90;;;;;;5054324;28;20587;-65
2023/07/09 03:02:17;;;;;;;7.07;5.33;;;20.40;99.90;;;;;;5052882;28;20163;-65
2023/07/09 03:04:42;;;;;;;10.30;7.30;;;20.20;99.90;;;;;;5054146;28;20570;-65
2023/07/09 03:07:08;;;;;;;7.13;6.10;;;20.20;99.90;;;;;;5053714;28;20566;-65
2023/07/09 03:09:33;;;;;;;7.93;5.77;;;20.10;99.90;;;;;;5054074;28;20167;-64
2023/07/09 03:11:59;;;;;;;7.33;5.00;;;20.10;99.90;;;;;;5054177;28;20171;-65
2023/07/09 03:14:25;;;;;;;6.63;5.40;;;20.20;99.90;;;;;;5053908;28;20268;-65
2023/07/09 03:16:51;;;;;;;9.03;4.57;;;20.20;99.90;;;;;;5053551;28;20632;-65
2023/07/09 03:19:16;;;;;;;9.97;5.20;;;20.20;99.90;;;;;;5053758;28;20195;-65
2023/07/09 03:21:42;;;;;;;7.30;5.20;;;20.20;99.90;;;;;;5053767;28;20167;-65
2023/07/09 03:24:08;;;;;;;7.77;5.97;;;20.20;99.90;;;;;;5053732;28;20837;-65
2023/07/09 03:26:34;;;;;;;8.30;5.30;;;20.20;99.90;;;;;;5053406;28;20163;-65
2023/07/09 03:28:59;;;;;;;4.90;4.40;;;20.30;99.90;;;;;;5053585;28;20490;-65
2023/07/09 03:31:25;;;;;;;9.73;6.13;;;20.20;99.90;;;;;;5053615;28;20178;-65
2023/07/09 03:33:52;;;;;;;6.10;5.50;;;20.20;99.90;;;;;;5053463;28;20195;-65
2023/07/09 03:36:19;;;;;;;5.73;4.97;;;20.20;99.90;;;;;;5053251;28;20163;-65
2023/07/09 03:38:45;;;;;;;7.73;5.23;;;20.20;99.90;;;;;;5053453;28;20510;-65
2023/07/09 03:41:11;;;;;;;8.07;5.00;;;20.20;99.90;;;;;;5053472;28;20463;-65
2023/07/09 03:43:36;;;;;;;5.63;4.60;;;20.30;99.90;;;;;;5053398;28;20229;-64
2023/07/09 03:46:02;;;;;;;5.60;4.87;;;20.20;99.90;;;;;;5053057;28;20186;-65
2023/07/09 03:48:28;;;;;;;9.10;5.00;;;20.20;99.90;;;;;;5051975;28;20198;-65
2023/07/09 03:50:53;;;;;;;10.47;6.27;;;20.30;99.90;;;;;;5053290;28;20516;-65
2023/07/09 03:53:19;;;;;;;9.17;5.63;;;20.20;99.90;;;;;;5053164;28;20209;-65
2023/07/09 03:55:53;;;;;;;5.80;4.90;;;20.20;99.90;;;;;;5052920;28;20189;-65
2023/07/09 03:58:18;;;;;;;5.30;4.80;;;20.20;99.90;;;;;;5053141;28;20558;-65
2023/07/09 04:00:44;;;;;;;7.03;5.20;;;20.30;99.90;;;;;;5052920;28;20505;-65
2023/07/09 04:03:10;;;;;;;6.80;5.10;;;20.30;99.90;;;;;;5052192;28;20250;-65
2023/07/09 04:05:36;;;;;;;5.87;4.90;;;20.30;99.90;;;;;;5052660;28;20413;-65
2023/07/09 04:08:01;;;;;;;5.20;4.70;;;20.30;99.90;;;;;;5052834;28;20211;-65
2023/07/09 04:10:28;;;;;;;7.50;5.80;;;20.40;99.90;;;;;;5052878;28;20212;-65
2023/07/09 04:12:53;;;;;;;8.73;5.63;;;20.40;99.90;;;;;;5052800;28;20859;-65
2023/07/09 04:15:19;;;;;;;7.30;5.17;;;20.40;99.90;;;;;;5052518;28;20167;-65
2023/07/09 04:17:44;;;;;;;6.00;5.07;;;20.40;99.90;;;;;;5052716;28;20185;-65
2023/07/09 04:20:10;;;;;;;7.70;5.40;;;20.40;99.90;;;;;;5052757;28;20189;-65
2023/07/09 04:22:37;;;;;;;6.20;4.83;;;20.40;99.90;;;;;;5052687;28;20177;-64
2023/07/09 04:25:04;;;;;;;8.23;5.87;;;20.50;99.90;;;;;;5052395;28;20417;-65
2023/07/09 04:27:31;;;;;;;7.53;6.47;;;20.50;99.90;;;;;;5052490;28;20832;-66
2023/07/09 04:29:56;;;;;;;8.43;4.80;;;20.50;99.90;;;;;;5052510;28;20394;-65
2023/07/09 04:32:22;;;;;;;4.80;3.93;;;20.60;99.90;;;;;;5052409;28;20773;-65
2023/07/09 04:34:48;;;;;;;6.47;5.43;;;20.60;99.90;;;;;;5052458;28;20245;-65
2023/07/09 04:37:16;;;;;;;7.00;5.40;;;20.60;99.90;;;;;;5052231;28;20508;-65
2023/07/09 04:39:43;;;;;;;9.10;5.50;;;20.70;99.90;;;;;;5052487;28;21041;-65
2023/07/09 04:42:14;;;;;;;5.93;5.37;;;20.80;99.90;;;;;;5052395;28;20952;-66
2023/07/09 04:44:40;;;;;;;7.63;5.13;;;20.90;99.90;;;;;;5052188;28;20405;-66
2023/07/09 04:47:06;;;;;;;12.33;6.80;;;20.90;99.90;;;;;;5052018;28;20512;-66
2023/07/09 04:49:32;;;;;;;7.17;5.57;;;20.90;99.90;;;;;;5052239;28;20530;-66
2023/07/09 04:51:59;;;;;;;7.87;6.70;;;21.00;99.90;;;;;;5052383;28;20460;-66
2023/07/09 04:54:24;;;;;;;9.30;6.53;;;21.10;99.90;;;;;;5052143;28;20957;-66
2023/07/09 04:56:50;;;;;;;6.60;6.00;;;21.10;99.90;;;;;;5051827;28;20390;-66
2023/07/09 04:59:16;;;;;;;7.97;6.60;;;21.20;99.90;;;;;;5052091;28;20406;-66
2023/07/09 05:01:41;;;;;;;7.50;6.17;;;21.30;99.90;;;;;;5052060;28;20198;-66
2023/07/09 05:04:07;;;;;;;6.90;6.17;;;21.30;99.90;;;;;;5052051;28;20206;-66
2023/07/09 05:06:34;;;;;;;8.00;5.97;;;21.40;99.90;;;;;;5051669;28;20175;-66
2023/07/09 05:08:59;;;;;;;7.13;6.27;;;21.50;99.90;;;;;;5051962;28;20558;-67
2023/07/09 05:11:25;;;;;;;8.23;6.53;;;21.50;99.90;;;;;;5051923;28;20402;-65
2023/07/09 05:13:50;;;;;;;8.63;7.73;;;21.60;99.90;;;;;;5051440;28;20198;-64
2023/07/09 05:16:16;;;;;;;9.40;7.10;;;21.60;99.90;;;;;;5051921;28;20280;-64
2023/07/09 05:18:42;;;;;;;7.63;5.47;;;21.70;99.90;;;;;;5052095;28;20667;-65
2023/07/09 05:21:07;;;;;;;7.67;6.00;;;21.80;99.90;;;;;;5051881;28;20409;-64
2023/07/09 05:23:33;;;;;;;7.10;5.70;;;21.90;99.90;;;;;;5051928;28;20174;-66
2023/07/09 05:26:00;;;;;;;10.23;6.17;;;22.00;99.90;;;;;;5051894;28;20166;-65
2023/07/09 05:28:25;;;;;;;7.63;5.63;;;22.20;99.90;;;;;;5051660;28;20240;-66
2023/07/09 05:30:51;;;;;;;8.57;6.00;;;22.20;99.90;;;;;;5051848;28;20413;-67
2023/07/09 05:33:18;;;;;;;7.33;6.20;;;22.30;99.90;;;;;;5051738;28;20198;-65
2023/07/09 05:35:44;;;;;;;6.17;5.57;;;22.50;99.90;;;;;;5051512;28;20163;-66
2023/07/09 05:38:10;;;;;;;8.90;6.20;;;22.70;99.90;;;;;;5051677;28;20417;-65
2023/07/09 05:40:35;;;;;;;8.87;6.63;;;22.80;99.90;;;;;;5050523;28;20413;-65
2023/07/09 05:43:01;;;;;;;9.13;5.87;;;22.80;99.90;;;;;;5051557;28;20209;-66
2023/07/09 05:45:26;;;;;;;6.70;5.77;;;22.90;99.90;;;;;;5051420;28;20613;-66
2023/07/09 05:47:52;;;;;;;12.13;5.73;;;23.10;99.90;;;;;;5051597;28;20269;-66
2023/07/09 05:50:17;;;;;;;7.83;5.90;;;23.30;99.90;;;;;;5051716;28;20538;-68
2023/07/09 05:52:43;;;;;;;7.13;5.43;;;23.50;99.90;;;;;;5051473;28;20198;-66
2023/07/09 05:55:09;;;;;;;6.57;5.20;;;23.70;99.90;;;;;;5051281;28;20159;-65
2023/07/09 05:57:34;;;;;;;9.40;5.97;;;23.90;99.90;;;;;;5051837;28;20190;-66
2023/07/09 06:00:00;;;;;;;7.90;4.90;;;24.20;99.90;;;;;;5051531;28;20160;-67
2023/07/09 06:02:25;;;;;;;5.77;5.20;;;24.30;99.90;;;;;;5051544;28;20284;-66
2023/07/09 06:04:51;;;;;;;9.30;7.30;;;24.60;99.90;;;;;;5051388;28;20658;-66
2023/07/09 06:07:18;;;;;;;7.73;5.57;;;24.80;99.90;;;;;;5051103;28;20791;-66
2023/07/09 06:09:45;;;;;;;6.37;5.20;;;25.20;99.90;;;;;;5051474;28;20166;-66
2023/07/09 06:12:11;;;;;;;9.70;5.07;;;25.50;99.90;;;;;;5051311;28;20401;-66
2023/07/09 06:14:37;;;;;;;6.47;5.87;;;26.00;99.90;;;;;;5051246;28;20456;-67
2023/07/09 06:17:02;;;;;;;8.63;4.47;;;26.30;99.90;;;;;;5051056;28;20645;-67
2023/07/09 06:19:28;;;;;;;5.70;4.77;;;26.90;99.90;;;;;;5051320;28;20166;-66
2023/07/09 06:21:53;;;;;;;5.53;4.97;;;27.50;99.90;;;;;;5051431;28;20705;-67
2023/07/09 06:24:19;;;;;;;5.03;4.53;;;28.30;99.90;;;;;;5051510;28;20171;-67
2023/07/09 06:26:45;;;;;;;5.40;4.50;;;29.00;99.90;;;;;;5054196;28;20163;-67
2023/07/09 06:29:10;;;;;;;5.23;4.20;;;29.50;99.90;;;;;;5054945;28;20193;-66
2023/07/09 06:31:37;;;;;;;5.53;5.00;;;30.10;99.90;;;;;;5054852;28;20170;-66
2023/07/09 06:34:03;;;;;;;6.37;5.30;;;30.70;99.90;;;;;;5054820;28;20231;-66
2023/07/09 06:36:29;;;;;;;5.90;4.10;;;31.30;99.90;;;;;;5054444;28;20492;-67
2023/07/09 06:38:54;;;;;;;5.57;4.33;;;31.70;99.30;;;;;;5054590;28;20456;-67
2023/07/09 06:41:20;;;;;;;5.33;4.23;;;32.10;96.00;;;;;;5054589;28;20171;-67
2023/07/09 06:43:46;;;;;;;4.60;4.20;;;32.50;95.10;;;;;;5054656;28;20167;-67
2023/07/09 06:46:13;;;;;;;4.70;4.30;;;33.00;92.10;;;;;;5054301;28;20741;-67
2023/07/09 06:48:39;;;;;;;4.63;4.23;;;33.50;90.10;;;;;;5054270;28;20203;-66
2023/07/09 06:51:05;;;;;;;5.57;4.07;;;33.90;85.30;;;;;;5054455;28;20412;-67
2023/07/09 06:53:30;;;;;;;5.80;4.63;;;34.60;80.80;;;;;;5054392;28;20256;-67
2023/07/09 06:55:58;;;;;;;5.70;4.60;;;35.10;76.00;;;;;;5053998;28;20259;-66
2023/07/09 06:58:27;;;;;;;4.00;3.70;;;35.60;71.20;;;;;;5054256;28;20273;-67
2023/07/09 07:00:54;;;;;;;7.43;5.27;;;35.80;65.20;;;;;;5054339;28;20409;-67
2023/07/09 07:03:20;;;;;;;6.53;5.47;;;35.90;61.30;;;;;;5054227;28;20409;-66
2023/07/09 07:05:48;;;;;;;10.27;8.10;;;35.80;60.10;;;;;;5053881;28;20410;-67
2023/07/09 07:08:17;;;;;;;6.47;4.83;;;36.00;59.00;;;;;;5053968;28;20441;-67
2023/07/09 07:10:43;;;;;;;5.17;4.67;;;36.20;57.90;;;;;;5053991;28;20465;-67
2023/07/09 07:13:09;;;;;;;4.77;4.30;;;36.40;57.50;;;;;;5053963;28;20945;-67
2023/07/09 07:15:37;;;;;;;5.80;5.30;;;36.80;56.70;;;;;;5053801;28;20459;-67
2023/07/09 07:18:03;;;;;;;4.13;3.77;;;37.30;55.10;;;;;;5053455;28;20198;-65
2023/07/09 07:20:30;;;;;;;5.10;4.60;;;37.50;54.80;;;;;;5053874;28;20405;-65
2023/07/09 07:22:56;;;;;;;4.87;4.30;;;37.60;53.10;;;;;;5053729;28;20418;-65
2023/07/09 07:25:23;;;;;;;8.70;4.33;;;38.20;53.10;;;;;;5053468;28;20377;-68
2023/07/09 07:27:49;;;;;;;5.40;4.70;;;38.60;50.80;;;;;;5053602;28;20400;-66
2023/07/09 07:30:14;;;;;;;6.23;5.27;;;38.70;49.70;;;;;;5053716;28;20420;-66
2023/07/09 07:32:45;;;;;;;6.20;5.33;;;39.30;50.00;;;;;;5053603;28;20179;-66
2023/07/09 07:35:11;;;;;;;5.83;4.20;;;39.80;48.30;;;;;;5053353;28;20163;-66
2023/07/09 07:37:37;;;;;;;5.47;4.97;;;40.00;47.50;;;;;;5053237;28;20428;-66
2023/07/09 07:40:04;;;;;;;4.00;3.70;;;40.50;46.40;;;;;;5053492;28;20178;-65
2023/07/09 07:42:30;;;;;;;6.47;4.30;;;40.60;45.70;;;;;;5053471;28;20167;-65
2023/07/09 07:44:55;;;;;;;7.03;5.13;;;41.00;45.40;;;;;;5053235;28;20421;-66
2023/07/09 07:47:21;;;;;;;6.13;4.37;;;41.30;44.00;;;;;;5053205;28;20671;-66
2023/07/09 07:49:46;;;;;;;5.07;4.57;;;41.60;44.00;;;;;;5053320;28;20636;-66
2023/07/09 07:52:12;;;;;;;7.20;5.60;;;41.80;42.70;;;;;;5053268;28;20167;-66
2023/07/09 07:54:38;;;;;;;4.73;4.33;;;41.70;41.00;;;;;;5053099;28;20581;-68
2023/07/09 07:57:04;;;;;;;4.50;4.10;;;41.60;41.10;;;;;;5052897;28;20194;-68
2023/07/09 07:59:30;;;;;;;4.30;3.90;;;41.90;41.10;;;;;;5053177;28;20416;-65
2023/07/09 08:01:56;;;;;;;5.60;4.10;;;41.60;40.30;;;;;;5053110;28;20376;-66
2023/07/09 08:04:21;;;;;;;4.13;3.83;;;41.60;40.00;;;;;;5053076;28;20742;-66
2023/07/09 08:06:47;;;;;;;4.97;4.47;;;41.70;40.00;;;;;;5052480;28;20248;-68
2023/07/09 08:09:12;;;;;;;5.47;4.40;;;41.80;39.30;;;;;;5052989;28;20199;-69
2023/07/09 08:11:38;;;;;;;5.90;5.20;;;42.60;39.70;;;;;;5052947;28;20167;-69
2023/07/09 08:14:03;;;;;;;5.27;4.63;;;43.10;37.40;;;;;;5052779;28;20206;-66
2023/07/09 08:16:29;;;;;;;4.80;4.40;;;43.60;37.20;;;;;;5052603;28;20534;-66
2023/07/09 08:18:55;;;;;;;4.53;4.13;;;44.20;37.40;;;;;;5052702;28;20190;-66
2023/07/09 08:21:21;;;;;;;6.13;5.53;;;44.90;35.30;;;;;;5052751;28;20797;-66
2023/07/09 08:23:46;;;;;;;7.70;4.50;;;45.00;35.30;;;;;;5052667;28;20396;-66
2023/07/09 08:26:12;;;;;;;7.43;4.30;;;45.70;35.30;;;;;;5052678;28;20171;-66
2023/07/09 08:28:38;;;;;;;4.93;4.07;;;45.80;34.10;;;;;;5052807;28;20193;-66
2023/07/09 08:31:04;;;;;;;4.73;4.33;;;46.30;33.30;;;;;;5052825;28;20372;-66
2023/07/09 08:33:30;;;;;;;6.30;4.30;;;46.80;33.00;;;;;;5052735;28;20191;-66
2023/07/09 08:35:56;;;;;;;4.57;4.17;;;47.20;32.30;;;;;;5052239;28;20372;-66
2023/07/09 08:38:22;;;;;;;5.10;4.47;;;47.80;32.10;;;;;;5052456;28;20528;-66
2023/07/09 08:41:04;;;;;;;5.83;4.63;;;48.40;31.20;;;;;;5052283;28;20398;-66
2023/07/09 08:43:54;;;;;;;5.10;4.70;;;48.90;30.40;;;;;;5052489;28;20395;-66
2023/07/09 08:46:44;;;;;;;6.43;5.13;;;49.50;29.80;;;;;;5052149;28;20383;-66
2023/07/09 08:49:19;;;;;;;5.97;5.27;;;50.00;29.60;;;;;;5051749;28;20409;-66
2023/07/09 08:51:47;;;;;;;5.37;4.87;;;50.70;29.50;;;;;;5052267;28;20372;-66
2023/07/09 08:54:34;;;;;;;4.23;3.93;;;51.10;29.00;;;;;;5052080;28;20492;-66
2023/07/09 08:57:17;;;;;;;5.17;4.10;;;51.50;28.60;;;;;;5051866;28;21051;-66
2023/07/09 08:59:42;;;;;;;4.60;4.23;;;51.40;27.40;;;;;;5051933;28;20737;-66
2023/07/09 09:02:25;;;;;;;4.90;4.60;;;51.80;27.40;;;;;;5051992;28;20384;-67
2023/07/09 09:04:51;;;;;;;4.70;4.33;;;51.90;26.70;;;;;;5051950;28;20212;-67
2023/07/09 09:07:27;;;;;;;4.40;4.10;;;52.00;27.20;;;;;;5051590;28;20479;-67
2023/07/09 09:10:00;;;;;;;4.90;4.50;;;52.20;26.40;;;;;;5052042;28;20395;-67
2023/07/09 09:12:40;;;;;;;7.93;5.00;;;51.90;26.20;;;;;;5052025;28;20372;-67
2023/07/09 09:15:18;;;;;;;4.97;4.53;;;52.00;27.10;;;;;;5051730;28;20420;-67
2023/07/09 09:17:44;;;;;;;5.97;5.00;;;52.20;26.40;;;;;;5051810;28;20455;-67
2023/07/09 09:20:19;;;;;;;5.37;4.90;;;52.40;25.90;;;;;;5051895;28;20898;-67
2023/07/09 09:22:58;;;;;;;7.70;4.83;;;52.70;26.10;;;;;;5051857;28;20166;-67
2023/07/09 09:25:31;;;;;;;5.60;5.20;;;53.30;25.90;;;;;;5051296;28;20749;-67
2023/07/09 09:28:00;;;;;;;5.23;4.80;;;54.00;26.40;;;;;;5051651;28;20383;-67
2023/07/09 09:30:27;;;;;;;6.60;6.07;;;54.50;25.70;;;;;;5050596;28;20408;-68
2023/07/09 09:32:57;;;;;;;5.80;4.87;;;55.40;25.50;;;;;;5051961;28;20949;-67
2023/07/09 09:35:33;;;;;;;6.57;6.13;;;56.20;25.00;;;;;;5051527;28;20400;-67
2023/07/09 09:37:59;;;;;;;6.90;6.50;;;56.60;24.20;;;;;;5051629;28;20416;-66
2023/07/09 09:40:28;;;;;;;6.23;5.63;;;56.90;24.10;;;;;;5051728;28;20920;-66
2023/07/09 09:42:59;;;;;;;5.53;5.13;;;56.70;23.90;;;;;;5051709;28;20428;-67
2023/07/09 09:45:35;;;;;;;6.10;5.70;;;56.90;23.90;;;;;;5051640;28;20821;-66
2023/07/09 09:48:10;;;;;;;5.70;5.40;;;57.50;23.70;;;;;;5051556;28;20973;-66
2023/07/09 09:50:36;;;;;;;6.30;5.80;;;57.80;23.40;;;;;;5051691;28;20408;-67
2023/07/09 09:53:01;;;;;;;6.90;6.50;;;58.50;23.20;;;;;;5051373;28;20544;-67
2023/07/09 09:55:32;;;;;;;5.80;5.50;;;58.60;22.80;;;;;;5051316;28;20852;-66
2023/07/09 09:57:58;;;;;;;6.70;6.10;;;58.90;23.20;;;;;;5051492;28;20210;-66
2023/07/09 10:00:28;;;;;;;7.13;6.47;;;58.60;22.60;;;;;;5054510;28;20408;-67
2023/07/09 10:03:03;;;;;;;6.67;6.17;;;58.90;23.10;;;;;;5055434;28;20695;-66
2023/07/09 10:05:44;;;;;;;5.63;5.20;;;59.30;22.30;;;;;;5054842;28;20443;-67
2023/07/09 10:08:18;;;;;;;6.40;6.00;;;59.40;22.40;;;;;;5055138;28;20455;-66
2023/07/09 10:10:46;;;;;;;6.23;5.80;;;59.30;21.80;;;;;;5055168;28;20499;-66
2023/07/09 10:13:33;;;;;;;5.70;5.30;;;59.40;22.50;;;;;;5054775;28;20452;-67
2023/07/09 10:16:10;;;;;;;7.53;7.13;;;59.20;22.00;;;;;;5054835;28;20404;-67
2023/07/09 10:18:49;;;;;;;7.03;6.63;;;59.40;22.00;;;;;;5055168;28;20494;-66
2023/07/09 10:21:33;;;;;;;6.70;6.20;;;59.10;21.70;;;;;;5055034;28;20400;-67
2023/07/09 10:24:11;;;;;;;5.83;5.53;;;59.00;21.90;;;;;;5054987;28;20444;-66
2023/07/09 10:26:48;;;;;;;5.80;5.30;;;58.80;21.50;;;;;;5054622;28;20408;-67
2023/07/09 10:29:23;;;;;;;6.10;5.60;;;58.20;21.70;;;;;;5054908;28;20805;-67
2023/07/09 10:31:48;;;;;;;6.83;6.33;;;58.60;21.90;;;;;;5054926;28;20428;-66
2023/07/09 10:34:34;;;;;;;5.80;5.43;;;59.40;22.10;;;;;;5054811;28;20408;-66
2023/07/09 10:37:08;;;;;;;7.50;7.10;;;60.00;22.00;;;;;;5054346;28;20178;-67
2023/07/09 10:39:50;;;;;;;7.73;7.13;;;60.50;21.10;;;;;;5054789;28;20896;-66
2023/07/09 10:42:37;;;;;;;6.53;6.22;;;61.00;21.30;;;;;;5054690;28;20417;-67
2023/07/09 10:45:14;;;;;;;6.63;6.28;;;61.60;21.40;;;;;;5054439;28;20636;-67
2023/07/09 10:47:44;;;;;;;8.40;7.80;;;61.90;20.50;;;;;;5054322;28;20194;-67
2023/07/09 10:50:28;;;;;;;7.70;7.25;;;62.10;20.60;;;;;;5054139;28;20159;-67
2023/07/09 10:52:57;;;;;;;9.05;8.35;;;62.60;20.90;;;;;;5054434;28;20277;-67
2023/07/09 10:55:36;;;;;;;8.85;7.53;;;63.00;20.40;;;;;;5054130;28;20169;-67
2023/07/09 10:58:16;;;;;;;8.10;7.60;;;62.90;19.50;;;;;;5054286;28;20190;-67
2023/07/09 11:00:41;;;;;;;7.13;6.72;;;62.40;19.10;;;;;;5054282;28;20639;-67
2023/07/09 11:03:21;;;;;;;6.63;6.23;;;61.60;19.30;;;;;;5054125;28;20225;-67
2023/07/09 11:05:50;;;;;;;6.77;6.47;;;60.80;19.80;;;;;;5054019;28;20163;-67
2023/07/09 11:08:20;;;;;;;14.13;6.70;;;60.20;19.50;;;;;;5053958;28;20444;-67
2023/07/09 11:10:56;;;;;;;4.80;4.60;;;59.50;19.10;;;;;;5053615;28;20924;-66
2023/07/09 11:13:33;;;;;;;7.17;6.67;;;58.80;19.80;;;;;;5054103;28;20422;-66
2023/07/09 11:16:00;;;;;;;7.13;6.53;;;59.00;20.60;;;;;;5053835;28;20463;-67
2023/07/09 11:18:34;;;;;;;5.60;5.30;;;59.60;20.30;;;;;;5053870;28;20433;-67
2023/07/09 11:21:06;;;;;;;6.77;6.17;;;60.00;20.20;;;;;;5054066;28;20420;-67
2023/07/09 11:23:48;;;;;;;6.33;5.83;;;60.50;20.50;;;;;;5053893;28;20436;-67
2023/07/09 11:26:31;;;;;;;7.90;7.40;;;61.00;20.10;;;;;;5053562;28;20400;-67
2023/07/09 11:29:06;;;;;;;7.83;7.13;;;61.00;19.10;;;;;;5053693;28;20448;-67
2023/07/09 11:31:38;;;;;;;7.07;6.40;;;60.50;19.40;;;;;;5053757;28;20411;-66
2023/07/09 11:34:17;;;;;;;5.70;5.30;;;58.90;19.50;;;;;;5053609;28;20404;-67
2023/07/09 11:37:01;;;;;;;5.90;5.50;;;56.30;19.20;;;;;;5053313;28;20400;-66
2023/07/09 11:39:36;;;;;;;4.53;4.13;;;53.70;19.90;;;;;;5053249;28;20519;-66
2023/07/09 11:42:02;;;;;;;4.83;4.43;;;52.40;21.30;;;;;;5053562;28;20908;-66
2023/07/09 11:44:30;;;;;;;4.83;4.40;;;52.00;21.40;;;;;;5053465;28;20579;-66
2023/07/09 11:47:17;;;;;;;5.30;4.87;;;51.50;22.20;;;;;;5053071;28;20421;-66
2023/07/09 11:50:01;;;;;;;5.73;5.07;;;51.30;22.10;;;;;;5053380;28;20401;-66
2023/07/09 11:52:40;;;;;;;4.87;4.50;;;50.40;22.40;;;;;;5053351;28;20409;-66
2023/07/09 11:55:29;;;;;;;4.03;3.73;;;50.20;22.60;;;;;;5052985;28;20932;-66
2023/07/09 11:58:02;;;;;;;4.73;3.97;;;49.90;22.50;;;;;;5053181;28;20441;-66
2023/07/09 12:00:36;;;;;;;4.30;3.60;;;49.30;21.70;;;;;;5053186;28;20758;-66
2023/07/09 12:03:02;;;;;;;4.00;3.70;;;48.80;21.60;;;;;;5053108;28;20847;-66
2023/07/09 12:05:29;;;;;;;4.70;4.40;;;48.30;22.50;;;;;;5052793;28;20480;-66
2023/07/09 12:07:56;;;;;;;4.87;4.47;;;48.20;22.80;;;;;;5052876;28;20229;-66
2023/07/09 12:10:25;;;;;;;4.20;3.90;;;48.70;22.90;;;;;;5052945;28;20390;-66
2023/07/09 12:12:58;;;;;;;5.40;3.47;;;49.00;22.60;;;;;;5052761;28;20453;-66
2023/07/09 12:15:27;;;;;;;4.83;4.37;;;49.10;22.30;;;;;;5052626;28;20752;-66
2023/07/09 12:18:09;;;;;;;7.33;3.63;;;49.00;21.30;;;;;;5052649;28;20464;-66
2023/07/09 12:20:35;;;;;;;4.63;4.17;;;48.70;21.90;;;;;;5052856;28;20383;-66
2023/07/09 12:23:16;;;;;;;3.67;3.37;;;49.20;22.50;;;;;;5051683;28;20441;-66
2023/07/09 12:25:50;;;;;;;4.33;3.90;;;49.70;22.00;;;;;;5052724;28;20964;-66
2023/07/09 12:28:16;;;;;;;3.43;3.23;;;49.80;21.50;;;;;;5052590;28;20508;-66
2023/07/09 12:30:50;;;;;;;4.17;3.87;;;49.90;21.60;;;;;;5052565;28;20440;-66
2023/07/09 12:33:21;;;;;;;3.87;3.57;;;50.10;21.60;;;;;;5052483;28;20198;-66
2023/07/09 12:35:49;;;;;;;5.00;4.60;;;49.50;21.00;;;;;;5052232;28;20402;-66
2023/07/09 12:38:20;;;;;;;6.53;3.40;;;48.80;21.60;;;;;;5052248;28;20432;-67
2023/07/09 12:40:47;;;;;;;4.33;3.93;;;47.60;22.30;;;;;;5052503;28;20925;-67
2023/07/09 12:43:13;;;;;;;24.47;22.37;;;46.80;23.00;;;;;;5052266;28;20419;-67
2023/07/09 12:45:39;;;;;;;10.90;10.10;;;45.80;23.00;;;;;;5052072;28;20405;-67
2023/07/09 12:48:05;;;;;;;5.70;5.13;;;44.90;23.80;;;;;;5052136;28;20182;-67
2023/07/09 12:50:34;;;;;;;4.63;4.23;;;43.90;24.50;;;;;;5052277;28;20224;-66
2023/07/09 12:53:21;;;;;;;6.03;5.47;;;43.00;25.00;;;;;;5052226;28;20368;-66
2023/07/09 12:55:50;;;;;;;19.30;17.40;;;42.30;25.20;;;;;;5051984;28;20492;-67